Time;durP1;ratioP1;P1;durP2;ratioP2;P2;SDS_P1;SDS_P2;PMS_P1;PMS_P2;Temp;Humidity;BMP_temperature;BMP_pressure;BME280_temperature;BME280_humidity;BME280_pressure;Samples;Min_cycle;Max_cycle;Signal;HPM_P1;HPM_P2
2022/04/21 00:01:17;;;;;;;11.60;9.30;;;;;;;6.93;76.69;100695.76;107327;1250;73231;-73
2022/04/21 00:03:46;;;;;;;15.20;9.50;;;;;;;6.94;76.71;100699.49;107317;1250;72761;-73
2022/04/21 00:06:16;;;;;;;13.00;9.70;;;;;;;6.93;76.43;100695.56;107352;1250;68720;-81
2022/04/21 00:08:46;;;;;;;11.80;9.30;;;;;;;6.92;76.43;100701.32;107379;1250;74415;-74
2022/04/21 00:11:14;;;;;;;13.00;9.70;;;;;;;6.97;75.42;100709.35;107548;1250;63527;-74
2022/04/21 00:13:43;;;;;;;14.00;9.60;;;;;;;6.98;75.91;100707.77;107304;1250;60128;-75
2022/04/21 00:16:12;;;;;;;13.80;10.70;;;;;;;6.98;76.13;100708.29;107462;1250;71768;-78
2022/04/21 00:18:42;;;;;;;14.90;10.80;;;;;;;6.91;76.30;100705.71;107140;1250;72235;-75
2022/04/21 00:21:11;;;;;;;15.30;10.60;;;;;;;6.85;77.49;100705.38;107367;1249;70981;-74
2022/04/21 00:23:40;;;;;;;12.10;9.50;;;;;;;6.76;79.03;100701.71;107360;1250;71791;-76
2022/04/21 00:26:09;;;;;;;12.40;9.40;;;;;;;6.79;79.10;100694.84;107360;1250;62033;-75
2022/04/21 00:28:37;;;;;;;14.50;10.50;;;;;;;6.82;79.09;100699.11;107414;1250;61070;-73
2022/04/21 00:31:06;;;;;;;12.40;9.60;;;;;;;6.89;78.39;100701.67;107027;1253;73040;-72
2022/04/21 00:33:35;;;;;;;14.20;10.40;;;;;;;6.85;78.81;100698.45;107313;1250;69345;-75
2022/04/21 00:36:04;;;;;;;13.00;10.00;;;;;;;6.80;77.81;100698.02;107321;1250;69670;-75
2022/04/21 00:38:33;;;;;;;12.20;9.20;;;;;;;6.81;77.51;100698.84;107459;1250;74211;-75
2022/04/21 00:41:01;;;;;;;12.90;9.70;;;;;;;6.79;77.61;100701.00;107318;1252;62619;-76
2022/04/21 00:43:30;;;;;;;13.20;9.80;;;;;;;6.81;77.88;100702.45;107298;1253;59777;-76
2022/04/21 00:45:59;;;;;;;13.00;10.40;;;;;;;6.84;77.84;100702.84;107478;1250;73911;-76
2022/04/21 00:48:29;;;;;;;13.50;9.90;;;;;;;6.80;77.95;100699.79;107363;1251;70702;-78
2022/04/21 00:50:58;;;;;;;13.70;9.20;;;;;;;6.76;77.53;100694.80;107738;1250;69055;-76
2022/04/21 00:53:27;;;;;;;12.00;9.10;;;;;;;6.83;76.53;100700.83;107379;1250;72536;-74
2022/04/21 00:55:57;;;;;;;12.50;9.50;;;;;;;6.83;77.22;100702.00;107431;1250;63346;-75
2022/04/21 00:58:27;;;;;;;14.00;9.50;;;;;;;6.84;77.68;100700.40;107250;1253;59315;-73
2022/04/21 01:00:57;;;;;;;12.80;9.60;;;;;;;6.85;77.00;100699.95;107352;1250;71727;-74
2022/04/21 01:03:27;;;;;;;14.30;10.00;;;;;;;6.85;76.35;100703.48;107250;1251;70491;-73
2022/04/21 01:05:56;;;;;;;12.80;9.30;;;;;;;6.82;77.09;100699.98;107717;1250;70549;-75
2022/04/21 01:08:24;;;;;;;13.30;9.50;;;;;;;6.84;77.57;100703.48;107698;1250;72601;-77
2022/04/21 01:10:53;;;;;;;11.50;9.20;;;;;;;6.84;76.89;100700.56;107631;1251;59562;-74
2022/04/21 01:13:22;;;;;;;14.70;9.80;;;;;;;6.86;76.50;100698.90;107640;1250;61304;-76
2022/04/21 01:15:50;;;;;;;12.80;10.40;;;;;;;6.88;77.08;100697.55;107505;1250;73991;-75
2022/04/21 01:18:27;;;;;;;12.60;10.20;;;;;;;6.86;77.57;100698.90;107142;1252;69737;-76
2022/04/21 01:20:56;;;;;;;14.20;10.10;;;;;;;6.87;77.22;100698.48;107276;1250;69471;-75
2022/04/21 01:23:25;;;;;;;12.50;10.20;;;;;;;6.81;77.49;100699.90;107025;1250;70974;-72
2022/04/21 01:25:55;;;;;;;12.80;9.80;;;;;;;6.77;77.57;100702.89;106952;1250;58927;-73
2022/04/21 01:28:25;;;;;;;13.40;10.00;;;;;;;6.73;77.78;100697.73;106981;1253;58734;-74
2022/04/21 01:30:55;;;;;;;13.10;9.40;;;;;;;6.78;77.47;100697.81;106872;1250;73581;-73
2022/04/21 01:33:24;;;;;;;13.30;9.50;;;;;;;6.83;77.05;100692.48;107197;1250;72736;-75
2022/04/21 01:35:53;;;;;;;13.50;10.40;;;;;;;6.90;76.74;100694.17;107200;1250;70350;-75
2022/04/21 01:41:10;;;;;;;12.40;9.50;;;;;;;6.91;76.52;100700.16;107133;1250;59178;-75
2022/04/21 01:43:43;;;;;;;12.20;9.80;;;;;;;6.92;75.49;100692.51;106979;1250;61233;-75
2022/04/21 01:46:13;;;;;;;14.30;10.60;;;;;;;6.81;77.23;100689.67;107027;1253;74475;-78
2022/04/21 01:48:42;;;;;;;11.50;9.50;;;;;;;6.78;77.19;100690.54;107536;1250;71128;-79
2022/04/21 01:51:11;;;;;;;17.70;10.80;;;;;;;6.78;77.07;100690.73;107153;1253;67753;-75
2022/04/21 01:53:40;;;;;;;15.70;10.30;;;;;;;6.80;76.88;100688.88;107373;1250;71951;-78
2022/04/21 01:56:09;;;;;;;13.50;10.00;;;;;;;6.83;75.86;100686.40;107194;1250;60423;-76
2022/04/21 01:58:38;;;;;;;14.50;10.00;;;;;;;6.88;76.11;100682.67;107281;1252;62078;-76
2022/04/21 02:01:08;;;;;;;12.80;9.60;;;;;;;6.91;75.13;100676.95;107247;1250;73009;-76
2022/04/21 02:03:36;;;;;;;11.70;9.30;;;;;;;6.89;75.18;100675.37;106962;1250;70733;-76
2022/04/21 02:06:05;;;;;;;12.30;9.50;;;;;;;6.88;74.84;100679.39;107371;1250;67937;-77
2022/04/21 02:08:34;;;;;;;12.90;9.40;;;;;;;6.83;74.90;100677.27;107043;1252;73340;-74
2022/04/21 02:11:02;;;;;;;16.40;10.20;;;;;;;6.87;74.70;100675.64;107336;1250;62076;-74
2022/04/21 02:13:31;;;;;;;13.20;10.10;;;;;;;6.84;74.47;100669.58;107429;1250;59415;-73
2022/04/21 02:16:00;;;;;;;17.80;11.10;;;;;;;6.76;74.78;100664.02;107244;1250;72752;-76
2022/04/21 02:18:29;;;;;;;13.20;9.50;;;;;;;6.75;74.90;100663.71;107283;1250;71827;-75
2022/04/21 02:20:58;;;;;;;12.40;9.90;;;;;;;6.78;75.15;100659.54;107134;1251;70048;-75
2022/04/21 02:23:27;;;;;;;11.30;9.30;;;;;;;6.80;75.84;100659.80;106971;1253;70319;-76
2022/04/21 02:25:56;;;;;;;13.30;9.90;;;;;;;6.76;74.06;100655.48;107229;1250;60789;-75
2022/04/21 02:28:25;;;;;;;13.30;8.70;;;;;;;6.82;73.34;100655.17;107258;1250;61571;-73
2022/04/21 02:30:54;;;;;;;13.80;10.00;;;;;;;6.86;74.98;100648.88;107247;1250;74680;-73
2022/04/21 02:33:22;;;;;;;11.30;9.20;;;;;;;6.81;74.06;100650.55;107136;1250;70809;-75
2022/04/21 02:35:51;;;;;;;14.90;10.40;;;;;;;6.75;73.41;100649.32;107132;1253;69256;-75
2022/04/21 02:38:20;;;;;;;11.90;8.50;;;;;;;6.77;72.75;100650.11;107269;1250;71163;-76
2022/04/21 02:40:48;;;;;;;12.70;9.20;;;;;;;6.75;72.63;100646.73;107310;1250;61266;-75
2022/04/21 02:43:18;;;;;;;11.40;8.80;;;;;;;6.83;72.86;100644.40;107143;1250;62367;-75
2022/04/21 02:45:46;;;;;;;12.40;8.20;;;;;;;6.86;71.47;100637.09;107125;1253;71602;-74
2022/04/21 02:48:16;;;;;;;13.20;9.60;;;;;;;6.85;71.54;100636.49;106873;1250;706340;-77
2022/04/21 02:50:48;;;;;;;11.50;9.40;;;;;;;6.81;71.55;100632.91;107485;1250;68361;-75
2022/04/21 02:57:20;;;;;;;12.00;9.60;;;;;;;6.83;71.79;100632.60;107054;1250;72296;-74
2022/04/21 02:58:55;;;;;;;12.90;9.70;;;;;;;6.76;73.54;100618.84;107296;1250;59845;-76
2022/04/21 03:01:24;;;;;;;11.40;9.40;;;;;;;6.83;73.53;100627.56;107507;1251;73512;-78
2022/04/21 03:03:54;;;;;;;13.70;9.50;;;;;;;6.83;73.40;100622.73;107910;1250;72687;-77
2022/04/21 03:06:23;;;;;;;13.00;9.40;;;;;;;6.87;73.20;100626.11;108057;1250;69247;-78
2022/04/21 03:08:51;;;;;;;12.50;9.80;;;;;;;6.89;73.47;100626.54;107952;1250;73174;-79
2022/04/21 03:11:20;;;;;;;14.20;9.40;;;;;;;6.88;72.39;100625.73;107792;1251;59173;-78
2022/04/21 03:13:49;;;;;;;14.30;10.00;;;;;;;6.83;71.72;100630.52;108246;1250;59753;-78
2022/04/21 03:16:18;;;;;;;15.50;10.00;;;;;;;6.85;72.60;100628.65;108542;1250;72766;-79
2022/04/21 03:18:46;;;;;;;13.30;10.50;;;;;;;6.86;72.75;100626.55;107704;1250;71910;-75
2022/04/21 03:24:21;;;;;;;14.20;9.80;;;;;;;6.90;71.13;100623.20;107255;1250;73205;-72
2022/04/21 03:26:53;;;;;;;12.70;9.00;;;;;;;6.95;70.51;100622.56;107361;1250;60096;-75
2022/04/21 03:29:22;;;;;;;15.20;8.40;;;;;;;6.98;70.01;100624.25;107361;1250;60424;-73
2022/04/21 03:31:50;;;;;;;15.70;10.80;;;;;;;6.98;70.21;100624.29;107332;1251;71315;-70
2022/04/21 03:34:20;;;;;;;12.50;9.80;;;;;;;7.03;70.22;100626.44;107483;1251;71466;-72
2022/04/21 03:36:49;;;;;;;11.30;8.60;;;;;;;7.05;69.82;100629.58;107496;1250;68502;-77
2022/04/21 03:39:21;;;;;;;14.60;9.60;;;;;;;7.08;69.81;100624.73;107849;1250;72029;-77
2022/04/21 03:41:53;;;;;;;13.10;9.60;;;;;;;7.06;70.13;100625.84;107656;1250;59739;-72
2022/04/21 03:44:22;;;;;;;12.50;9.10;;;;;;;7.05;70.16;100625.92;107517;1250;59268;-72
2022/04/21 03:46:51;;;;;;;12.40;8.40;;;;;;;7.03;70.53;100623.97;107294;1252;72735;-73
2022/04/21 03:49:20;;;;;;;13.30;9.20;;;;;;;6.95;71.13;100628.42;107436;1252;72997;-72
2022/04/21 03:51:49;;;;;;;13.90;9.40;;;;;;;6.92;70.92;100632.25;107808;1250;69280;-73
2022/04/21 03:54:18;;;;;;;13.10;9.50;;;;;;;6.90;71.04;100634.27;107764;1250;72011;-75
2022/04/21 03:56:47;;;;;;;12.30;9.20;;;;;;;6.87;71.01;100637.58;107715;1250;60562;-72
2022/04/21 03:59:17;;;;;;;13.70;10.10;;;;;;;6.82;71.26;100635.94;107641;1250;61484;-72
2022/04/21 04:01:47;;;;;;;13.20;9.50;;;;;;;6.78;71.54;100644.48;107716;1250;71409;-71
2022/04/21 04:04:16;;;;;;;12.60;9.30;;;;;;;6.77;71.74;100645.22;107617;1252;70355;-73
2022/04/21 04:12:20;;;;;;;12.80;9.40;;;;;;;6.78;71.65;100651.23;107288;1250;59699;-72
2022/04/21 04:14:49;;;;;;;12.60;9.30;;;;;;;6.79;71.70;100654.30;107410;1250;60489;-73
2022/04/21 04:17:18;;;;;;;14.70;9.40;;;;;;;6.73;72.17;100665.07;107257;1250;73817;-77
2022/04/21 04:19:46;;;;;;;10.90;8.20;;;;;;;6.71;72.45;100666.00;107617;1250;71750;-78
2022/04/21 04:22:15;;;;;;;12.50;8.70;;;;;;;6.71;72.46;100666.70;107633;1250;68225;-75
2022/04/21 04:24:45;;;;;;;12.60;8.80;;;;;;;6.78;71.95;100667.70;107318;1250;71974;-74
2022/04/21 04:27:14;;;;;;;10.50;8.10;;;;;;;6.84;71.80;100662.86;107232;1252;60568;-74
2022/04/21 04:29:43;;;;;;;12.90;8.70;;;;;;;6.88;71.59;100662.92;107498;1253;59094;-74
2022/04/21 04:32:14;;;;;;;10.90;8.40;;;;;;;6.91;71.79;100665.39;107371;1252;71039;-73
2022/04/21 04:34:43;;;;;;;12.00;9.50;;;;;;;7.02;70.89;100664.41;107485;1250;72235;-74
2022/04/21 04:37:13;;;;;;;14.60;9.30;;;;;;;6.95;71.16;100667.25;107706;1250;68350;-76
2022/04/21 04:39:43;;;;;;;18.80;10.90;;;;;;;6.95;71.38;100662.05;108234;1250;71400;-72
2022/04/21 04:47:54;;;;;;;15.60;10.40;;;;;;;7.17;71.03;100660.36;106807;1256;72281;-71
2022/04/21 04:50:23;;;;;;;18.20;10.10;;;;;;;7.19;70.96;100663.23;106845;1256;69596;-72
2022/04/21 04:53:00;;;;;;;16.40;10.80;;;;;;;7.15;71.35;100664.33;106984;1256;68062;-68
2022/04/21 04:55:30;;;;;;;16.00;10.50;;;;;;;7.21;71.50;100669.36;106638;1257;73379;-66
2022/04/21 04:57:59;;;;;;;16.30;10.20;;;;;;;7.35;70.64;100670.56;106742;1256;58985;-68
2022/04/21 05:00:29;;;;;;;19.40;10.30;;;;;;;7.40;70.40;100670.30;106594;1257;59609;-68
2022/04/21 05:02:58;;;;;;;13.30;9.70;;;;;;;7.45;70.30;100671.36;106678;1257;71699;-69
2022/04/21 05:05:28;;;;;;;16.30;10.20;;;;;;;7.51;70.04;100669.14;106730;1257;69678;-70
2022/04/21 05:07:57;;;;;;;15.70;10.90;;;;;;;7.48;70.23;100676.23;106789;1256;70614;-73
2022/04/21 05:10:28;;;;;;;16.10;10.30;;;;;;;7.60;70.12;100677.09;106668;1256;71650;-70
2022/04/21 05:12:57;;;;;;;17.80;9.70;;;;;;;7.75;69.30;100675.45;106687;1256;60560;-69
2022/04/21 05:15:26;;;;;;;15.10;8.60;;;;;;;7.90;68.00;100673.69;106724;1257;59765;-69
2022/04/21 05:17:56;;;;;;;13.00;9.40;;;;;;;7.91;67.53;100674.80;106699;1256;73480;-67
2022/04/21 05:20:27;;;;;;;12.10;9.40;;;;;;;7.95;67.40;100679.41;106835;1256;74197;-76
2022/04/21 05:23:05;;;;;;;17.00;10.10;;;;;;;7.96;67.53;100683.48;107385;1256;68346;-76
2022/04/21 05:25:37;;;;;;;12.90;9.30;;;;;;;7.96;68.06;100681.11;106910;1257;73937;-75
2022/04/21 05:28:09;;;;;;;14.20;10.00;;;;;;;8.05;67.41;100677.23;106558;1256;61561;-77
2022/04/21 05:33:29;;;;;;;16.00;10.30;;;;;;;8.18;67.01;100676.09;106773;1256;75908;-75
2022/04/21 05:36:00;;;;;;;16.10;10.50;;;;;;;8.36;66.44;100673.77;106746;1256;72010;-74
2022/04/21 05:38:30;;;;;;;18.20;10.30;;;;;;;8.53;65.20;100672.70;106707;1256;70252;-75
2022/04/21 05:41:00;;;;;;;16.00;10.40;;;;;;;8.65;64.96;100670.52;106661;1256;71833;-75
2022/04/21 05:43:46;;;;;;;14.70;10.00;;;;;;;8.72;64.62;100670.05;106598;1257;61383;-74
2022/04/21 05:46:16;;;;;;;15.70;9.40;;;;;;;8.85;62.84;100672.33;106658;1256;61837;-75
2022/04/21 05:48:45;;;;;;;17.30;10.80;;;;;;;8.84;62.52;100670.46;106698;1257;73089;-75
2022/04/21 05:51:16;;;;;;;17.70;10.50;;;;;;;8.68;63.76;100667.86;106542;1257;70355;-77
2022/04/21 05:53:49;;;;;;;13.40;9.20;;;;;;;8.77;63.42;100665.04;106640;1256;69881;-76
2022/04/21 05:56:19;;;;;;;13.40;10.60;;;;;;;8.84;63.41;100666.98;106845;1256;71660;-76
2022/04/21 05:58:48;;;;;;;16.80;11.20;;;;;;;8.97;62.62;100667.89;106565;1257;59773;-75
2022/04/21 06:01:17;;;;;;;14.60;10.80;;;;;;;8.92;62.49;100668.71;106749;1256;62374;-76
2022/04/21 06:03:52;;;;;;;14.00;10.50;;;;;;;9.03;61.71;100669.94;106580;1257;71900;-79
2022/04/21 06:06:27;;;;;;;16.70;10.60;;;;;;;9.16;62.27;100667.84;106768;1256;71793;-75
2022/04/21 06:08:55;;;;;;;14.10;10.30;;;;;;;9.27;61.73;100674.39;107039;1256;71077;-76
2022/04/21 06:11:24;;;;;;;13.70;10.30;;;;;;;9.38;61.84;100672.79;106972;1255;71736;-73
2022/04/21 06:13:53;;;;;;;15.00;10.60;;;;;;;9.38;60.02;100672.26;107076;1257;58980;-78
2022/04/21 06:16:22;;;;;;;17.60;11.20;;;;;;;9.44;59.89;100667.84;107022;1255;61375;-79
2022/04/21 06:18:51;;;;;;;13.40;10.90;;;;;;;9.45;58.90;100670.71;106790;1255;71429;-77
2022/04/21 06:21:20;;;;;;;16.00;10.40;;;;;;;9.45;59.27;100677.54;106756;1256;71538;-75
2022/04/21 06:23:48;;;;;;;19.40;11.70;;;;;;;9.53;58.89;100681.17;106933;1256;69475;-74
2022/04/21 06:26:17;;;;;;;17.40;10.50;;;;;;;9.60;58.88;100680.33;106746;1255;71286;-72
2022/04/21 06:28:47;;;;;;;15.00;10.70;;;;;;;9.66;58.33;100678.16;106880;1256;60620;-74
2022/04/21 06:31:19;;;;;;;16.00;11.40;;;;;;;9.64;55.67;100679.50;106855;1256;60901;-73
2022/04/21 06:33:51;;;;;;;14.50;10.90;;;;;;;9.67;56.41;100672.33;106848;1256;73547;-75
2022/04/21 06:36:20;;;;;;;16.80;10.50;;;;;;;9.78;56.31;100664.78;106337;1259;73040;-73
2022/04/21 06:38:51;;;;;;;15.80;10.40;;;;;;;9.87;55.53;100669.27;106761;1257;70492;-72
2022/04/21 06:41:20;;;;;;;14.80;10.90;;;;;;;9.90;54.93;100667.41;106764;1256;73797;-73
2022/04/21 06:49:24;;;;;;;16.30;11.40;;;;;;;10.05;54.50;100665.85;106772;1256;73302;-74
2022/04/21 06:51:53;;;;;;;16.60;10.90;;;;;;;10.15;53.17;100664.10;106529;1256;72303;-73
2022/04/21 06:54:23;;;;;;;18.80;11.10;;;;;;;10.29;52.56;100665.22;106554;1255;71303;-74
2022/04/21 06:56:53;;;;;;;12.90;10.10;;;;;;;10.31;52.87;100661.58;106664;1256;73196;-76
2022/04/21 06:59:24;;;;;;;17.40;11.10;;;;;;;10.56;51.21;100655.73;106568;1257;61270;-74
2022/04/21 07:01:53;;;;;;;15.80;10.40;;;;;;;10.46;51.34;100663.52;106467;1257;61170;-76
2022/04/21 07:04:22;;;;;;;14.20;10.60;;;;;;;10.67;50.31;100658.65;106873;1255;72211;-75
2022/04/21 07:06:51;;;;;;;18.80;11.40;;;;;;;10.62;50.67;100658.65;106605;1256;70403;-73
2022/04/21 07:09:23;;;;;;;18.90;11.20;;;;;;;10.68;50.16;100658.23;106636;1255;68754;-73
2022/04/21 07:11:52;;;;;;;17.30;12.80;;;;;;;10.76;50.35;100658.16;106612;1256;74326;-73
2022/04/21 07:14:21;;;;;;;17.00;12.10;;;;;;;10.87;50.61;100662.89;106514;1257;61768;-74
2022/04/21 07:16:52;;;;;;;19.90;13.90;;;;;;;11.14;48.61;100662.08;106582;1257;59340;-74
2022/04/21 07:19:22;;;;;;;17.20;11.70;;;;;;;11.26;47.35;100655.61;106527;1257;72964;-72
2022/04/21 07:21:51;;;;;;;16.50;11.20;;;;;;;11.24;47.83;100655.58;106632;1257;73612;-75
2022/04/21 07:24:22;;;;;;;22.00;13.20;;;;;;;11.36;48.51;100652.21;106438;1257;67327;-73
2022/04/21 07:26:53;;;;;;;17.70;12.40;;;;;;;11.55;47.27;100645.34;106657;1257;72849;-76
2022/04/21 07:29:22;;;;;;;16.60;13.00;;;;;;;11.61;46.86;100649.41;106685;1257;61514;-75
2022/04/21 07:31:51;;;;;;;20.90;13.60;;;;;;;11.61;47.44;100643.35;106714;1256;62514;-74
2022/04/21 07:34:20;;;;;;;16.90;11.80;;;;;;;11.82;46.76;100646.23;106762;1256;72365;-74
2022/04/21 07:36:50;;;;;;;18.60;12.40;;;;;;;11.96;44.15;100641.45;106875;1256;72768;-74
2022/04/21 07:39:18;;;;;;;17.70;11.00;;;;;;;11.76;44.88;100640.44;106663;1256;71143;-75
2022/04/21 07:41:47;;;;;;;22.50;13.70;;;;;;;11.65;44.91;100638.33;106611;1256;71713;-74
2022/04/21 07:44:23;;;;;;;20.70;13.50;;;;;;;11.55;44.95;100636.85;106679;1256;61481;-73
2022/04/21 07:46:54;;;;;;;19.40;12.50;;;;;;;11.45;45.28;100636.02;106806;1257;60503;-79
2022/04/21 07:55:14;;;;;;;18.50;12.90;;;;;;;11.49;45.40;100625.05;106832;1257;68816;-73
2022/04/21 07:57:45;;;;;;;19.60;12.30;;;;;;;11.68;44.69;100627.65;106927;1256;74044;-72
2022/04/21 08:00:17;;;;;;;20.40;14.00;;;;;;;11.64;44.78;100624.30;106782;1256;61642;-72
2022/04/21 08:02:48;;;;;;;21.50;14.30;;;;;;;11.33;44.99;100618.45;106528;1256;60931;-73
2022/04/21 08:05:20;;;;;;;19.50;13.60;;;;;;;11.52;45.12;100618.54;106746;1256;73830;-75
2022/04/21 08:07:52;;;;;;;26.00;14.20;;;;;;;11.63;45.09;100614.42;106524;1256;70167;-77
2022/04/21 08:10:22;;;;;;;19.80;13.20;;;;;;;11.97;45.50;100617.33;106731;1255;70950;-73
2022/04/21 08:12:53;;;;;;;18.30;12.90;;;;;;;12.19;44.31;100606.84;106431;1256;71970;-72
2022/04/21 08:15:30;;;;;;;13.20;8.20;;;;;;;12.35;43.14;100612.48;106742;1253;58634;-72
2022/04/21 08:18:03;;;;;;;16.60;11.70;;;;;;;12.55;41.80;100613.38;106804;1256;60664;-74
2022/04/21 08:20:34;;;;;;;16.80;11.20;;;;;;;12.55;42.06;100610.56;106804;1256;74406;-74
2022/04/21 08:23:07;;;;;;;18.80;12.50;;;;;;;12.58;42.13;100607.29;106692;1256;71138;-73
2022/04/21 08:34:34;;;;;;;15.20;11.30;;;;;;;13.02;40.69;100603.28;106678;1257;59067;-73
2022/04/21 08:37:03;;;;;;;17.20;11.10;;;;;;;13.05;41.10;100599.21;106945;1257;73261;-76
2022/04/21 08:39:32;;;;;;;12.90;9.20;;;;;;;13.18;41.05;100598.80;106523;1257;72239;-71
2022/04/21 08:42:11;;;;;;;15.20;9.90;;;;;;;13.28;39.44;100597.81;106716;1256;70595;-70
2022/04/21 08:44:43;;;;;;;15.50;8.70;;;;;;;13.29;38.41;100590.89;106550;1256;72023;-71
2022/04/21 08:47:14;;;;;;;14.00;9.60;;;;;;;13.36;38.29;100598.88;106817;1254;59116;-71
2022/04/21 08:49:50;;;;;;;12.10;8.70;;;;;;;13.36;38.71;100597.99;106862;1255;60525;-73
2022/04/21 08:52:19;;;;;;;13.70;9.30;;;;;;;13.46;38.02;100597.83;106694;1256;74249;-71
2022/04/21 08:54:48;;;;;;;14.00;9.10;;;;;;;13.48;39.16;100591.73;106603;1256;70792;-71
2022/04/21 08:57:17;;;;;;;14.60;9.30;;;;;;;13.69;38.94;100592.90;106674;1255;68564;-72
2022/04/21 08:59:46;;;;;;;11.60;8.70;;;;;;;14.03;38.90;100589.48;106962;1256;71557;-71
2022/04/21 09:02:16;;;;;;;11.60;8.70;;;;;;;14.25;37.81;100580.35;106957;1256;61472;-71
2022/04/21 09:04:46;;;;;;;11.40;7.60;;;;;;;14.32;36.83;100583.90;106843;1256;59231;-72
2022/04/21 09:07:21;;;;;;;11.30;7.50;;;;;;;14.45;37.03;100580.79;106847;1256;74438;-73
2022/04/21 09:10:04;;;;;;;10.10;7.30;;;;;;;14.71;34.55;100581.09;106580;1256;74079;-72
2022/04/21 09:12:36;;;;;;;10.20;7.20;;;;;;;14.64;34.34;100574.23;106929;1256;71940;-71
2022/04/21 09:15:09;;;;;;;12.60;7.00;;;;;;;14.62;34.02;100578.67;106692;1256;72381;-72
2022/04/21 09:17:58;;;;;;;9.60;7.10;;;;;;;14.62;33.87;100574.73;106986;1256;61454;-71
2022/04/21 09:20:33;;;;;;;10.90;7.00;;;;;;;14.59;33.69;100569.95;106575;1256;59790;-71
2022/04/21 09:23:12;;;;;;;10.80;8.20;;;;;;;14.48;34.13;100573.21;106533;1257;72721;-76
2022/04/21 09:25:49;;;;;;;11.00;8.00;;;;;;;14.43;34.52;100571.02;106871;1254;68614;-71
2022/04/21 09:28:22;;;;;;;10.70;7.50;;;;;;;14.61;33.95;100571.83;106657;1256;70683;-71
2022/04/21 09:30:54;;;;;;;8.40;6.90;;;;;;;14.84;32.42;100573.77;106872;1256;72560;-70
2022/04/21 09:33:35;;;;;;;9.50;7.40;;;;;;;14.81;31.80;100584.95;106675;1256;61382;-72
2022/04/21 09:36:09;;;;;;;11.50;6.90;;;;;;;14.66;32.32;100577.70;106718;1256;60267;-72
2022/04/21 09:38:40;;;;;;;9.60;7.20;;;;;;;14.61;31.97;100577.98;106624;1257;72467;-71
2022/04/21 09:41:14;;;;;;;9.90;7.40;;;;;;;14.73;32.64;100581.67;106429;1256;73187;-72
2022/04/21 09:43:43;;;;;;;12.80;7.40;;;;;;;14.89;32.10;100579.15;106721;1256;69331;-71
2022/04/21 09:46:17;;;;;;;9.00;5.40;;;;;;;15.01;31.98;100581.67;106986;1255;72907;-70
2022/04/21 09:48:53;;;;;;;8.00;7.10;;;;;;;15.22;30.85;100577.64;106856;1255;60814;-72
2022/04/21 09:51:28;;;;;;;11.20;7.40;;;;;;;15.25;30.90;100570.16;106658;1256;60707;-71
2022/04/21 09:54:02;;;;;;;8.30;6.10;;;;;;;15.33;31.24;100566.77;106909;1255;73655;-71
2022/04/21 09:56:40;;;;;;;10.30;6.40;;;;;;;15.74;30.11;100568.84;106735;1256;71797;-71
2022/04/21 09:59:13;;;;;;;11.10;7.70;;;;;;;15.83;29.05;100563.55;106705;1257;69050;-71
2022/04/21 10:01:42;;;;;;;10.30;6.70;;;;;;;15.75;29.34;100555.40;106566;1256;73953;-72
2022/04/21 10:04:13;;;;;;;10.70;7.20;;;;;;;15.69;29.93;100557.15;106820;1257;61785;-71
2022/04/21 10:06:46;;;;;;;8.00;6.40;;;;;;;15.62;30.14;100560.86;107102;1256;61935;-74
2022/04/21 10:09:19;;;;;;;;;;;;;;;15.83;29.95;100561.77;106895;1257;72759;-72
2022/04/21 10:11:52;;;;;;;12.70;8.90;;;;;;;16.05;29.00;100553.86;106663;1256;70202;-74
2022/04/21 10:14:23;;;;;;;12.10;7.70;;;;;;;15.92;29.24;100551.81;106818;1256;69767;-73
2022/04/21 10:16:58;;;;;;;12.50;7.80;;;;;;;15.80;29.37;100549.79;107122;1250;72869;-72
2022/04/21 10:19:28;;;;;;;9.50;6.60;;;;;;;15.51;29.97;100549.91;107148;1250;61632;-72
2022/04/21 10:22:02;;;;;;;10.10;6.40;;;;;;;15.43;30.08;100548.05;107312;1249;59905;-72
2022/04/21 10:24:34;;;;;;;11.50;6.30;;;;;;;15.49;28.79;100551.52;107037;1250;74229;-73
2022/04/21 10:27:06;;;;;;;10.40;6.30;;;;;;;15.48;28.92;100549.86;107237;1249;72845;-76
2022/04/21 10:29:50;;;;;;;8.30;5.30;;;;;;;15.53;28.70;100553.40;107083;1249;71477;-73
2022/04/21 10:32:19;;;;;;;7.50;6.20;;;;;;;15.41;29.06;100552.97;106849;1250;74780;-74
2022/04/21 10:34:56;;;;;;;7.90;6.10;;;;;;;15.41;29.49;100547.04;106876;1250;61734;-79
2022/04/21 10:37:32;;;;;;;8.30;5.90;;;;;;;15.50;30.16;100549.33;106893;1249;60803;-74
2022/04/21 10:40:03;;;;;;;9.80;5.90;;;;;;;15.60;29.80;100556.98;106896;1250;72910;-73
2022/04/21 10:42:55;;;;;;;7.80;5.80;;;;;;;15.77;29.86;100554.80;107105;1249;72998;-70
2022/04/21 10:45:33;;;;;;;8.90;5.90;;;;;;;15.86;29.48;100554.14;107162;1249;70890;-73
2022/04/21 10:48:12;;;;;;;8.20;5.70;;;;;;;15.95;29.14;100534.96;107132;1249;74595;-71
2022/04/21 10:50:45;;;;;;;8.40;5.80;;;;;;;16.24;28.92;100549.00;107229;1249;61228;-76
2022/04/21 10:59:10;;;;;;;;;;;;;;;16.02;28.38;100543.45;107150;1250;72727;-72
2022/04/21 11:01:53;;;;;;;6.80;5.30;;;;;;;15.93;28.02;100543.44;107247;1250;68337;-71
2022/04/21 11:04:23;;;;;;;;;;;;;;;16.38;27.75;100544.44;107124;1251;71153;-72
2022/04/21 11:07:09;;;;;;;6.40;5.50;;;;;;;16.33;28.19;100541.27;107211;1251;60313;-75
2022/04/21 11:09:45;;;;;;;7.10;5.50;;;;;;;16.23;28.29;100541.88;107424;1249;60910;-74
2022/04/21 11:12:50;;;;;;;8.80;5.50;;;;;;;16.07;28.20;100536.78;107468;1250;72156;-74
2022/04/21 11:15:47;;;;;;;8.00;5.70;;;;;;;16.00;28.70;100534.13;107274;1252;69982;-74
2022/04/21 11:18:17;;;;;;;6.60;5.40;;;;;;;15.76;28.44;100537.17;107738;1249;70504;-75
2022/04/21 11:20:51;;;;;;;15.00;5.60;;;;;;;15.85;28.18;100536.37;107731;1249;72656;-76
2022/04/21 11:23:30;;;;;;;8.70;6.00;;;;;;;15.73;28.50;100537.30;107576;1249;62450;-77
2022/04/21 11:26:08;;;;;;;8.80;5.90;;;;;;;15.50;28.36;100524.96;107694;1249;61741;-75
2022/04/21 11:28:45;;;;;;;9.00;5.90;;;;;;;15.58;28.31;100524.80;107329;1250;72850;-75
2022/04/21 11:31:14;;;;;;;9.20;6.40;;;;;;;15.89;28.09;100524.04;107545;1249;73124;-74
2022/04/21 11:33:45;;;;;;;8.50;5.70;;;;;;;16.13;28.13;100526.89;107510;1249;67759;-75
2022/04/21 11:36:16;;;;;;;18.50;9.60;;;;;;;16.53;27.72;100526.39;107285;1250;73928;-74
2022/04/21 11:38:52;;;;;;;10.60;6.10;;;;;;;16.97;26.97;100523.10;107347;1251;59444;-75
2022/04/21 11:41:20;;;;;;;8.70;6.40;;;;;;;17.43;26.12;100517.94;107606;1249;60870;-77
2022/04/21 11:43:50;;;;;;;9.50;6.30;;;;;;;17.75;26.69;100511.79;107474;1249;70545;-76
2022/04/21 11:46:20;;;;;;;9.90;6.20;;;;;;;17.91;26.67;100507.30;107575;1249;70801;-74
2022/04/21 11:49:03;;;;;;;7.70;5.90;;;;;;;18.39;25.85;100505.98;107322;1250;71774;-76
2022/04/21 11:51:32;;;;;;;10.60;6.70;;;;;;;18.45;24.78;100496.85;107347;1251;64080;-75
2022/04/21 11:54:10;;;;;;;9.70;5.30;;;;;;;18.33;24.82;100498.32;107519;1249;59140;-75
2022/04/21 11:56:39;;;;;;;9.90;5.80;;;;;;;17.99;25.33;100502.21;107259;1249;61289;-76
2022/04/21 11:59:10;;;;;;;7.90;5.60;;;;;;;17.59;25.48;100505.02;107531;1249;75304;-75
2022/04/21 12:07:18;;;;;;;9.40;5.30;;;;;;;17.12;26.12;100497.25;107314;1249;73489;-76
2022/04/21 12:09:48;;;;;;;8.90;5.60;;;;;;;16.65;26.09;100499.16;107318;1250;61637;-78
2022/04/21 12:12:21;;;;;;;7.90;5.30;;;;;;;16.51;26.54;100491.15;107205;1250;61010;-76
2022/04/21 12:14:50;;;;;;;9.30;4.20;;;;;;;16.64;26.04;100492.98;107210;1249;72893;-75
2022/04/21 12:17:20;;;;;;;7.50;5.20;;;;;;;16.53;25.46;100481.80;107379;1249;72797;-75
2022/04/21 12:19:49;;;;;;;9.00;5.70;;;;;;;16.10;26.07;100487.61;107257;1249;71984;-76
2022/04/21 12:22:32;;;;;;;10.00;5.70;;;;;;;16.21;26.27;100488.61;107394;1250;72614;-74
2022/04/21 12:25:02;;;;;;;9.50;4.90;;;;;;;16.74;25.81;100487.39;107219;1252;58966;-76